Auxvasse, MO

2:31 PM CST on February 28, 2015 (GMT -0600)
Washington | Change Station
CLOSE
Current Station
Airport
Location: Washington,
Elevation: 486 ft
Nearby Weather Stations
Active Advisory: Winter Weather Advisory

Elev 486 ft 38.59 °N, 90.99 °W | Updated 16 minutes ago

Overcast
Overcast
25 °F
Feels Like 18 °F
N
6
Wind Variable Wind from ESE

Today
High -- | Low -- °F
--% Chance of Precip.
Yesterday
High -- | Low -- °F
Precip. -- in
6:41 AM 5:58 PM
Waxing Gibbous, 80% visible
Pressure 30.49 in
Visibility 0.8 miles
Clouds
Windchill 18 °F
Dew Point 21 °F
Humidity 86%
Rainfall 0.10 in
Snow Depth Not available.
UV Not available.
Pollen .60 out of 12
Air Quality Not available.
Flu Activity Not available.
METAR KFYG 282015Z AUTO 12005KT 3/4SM -SN VV005 M04/M06 A3049 RMK AO2 P0002

More Conditions Fewer Conditions

Pressure 30.49 in
Visibility 0.8 miles
Clouds
Windchill 18 °F
Dew Point 21 °F
Humidity 86%
Rainfall 0.10 in
Snow Depth Not available.
UV Not available.
Pollen .60 out of 12
Air Quality Not available.
Flu Activity Not available.
METAR KFYG 282015Z AUTO 12005KT 3/4SM -SN VV005 M04/M06 A3049 RMK AO2 P0002

More Conditions Fewer Conditions

10-Day Weather Forecast

Almanac

Astronomy

Feb. 28, 2015 Rise Set
Actual Time
Civil Twilight
Nautical Twilight
Astronomical Twilight
Moon
Length of Visible Light
Length of Day
Tomorrow will be .
, % of the Moon is Illuminated

Today's Extremes

State Highs State Lows

Community

WunderPhotos

Upload Photos

1,801,138 photos uploaded!

WunderBlogs® & News

Nearby

Air Quality

  Air Quality AQ Index Pollutant
Not available.

Snow Depth

Station Depth Elevation

Earthquake Activity

City Distance Mag. Time & Date
Minimum magnitude displayed is 2.5.

Coastal Water Temperatures

Place Temperature

Nearby Weather Stations

Winter Weather Advisory
Statement as of 12:18 PM CST on February 28, 2015

... Winter Weather Advisory remains in effect until 6 PM CST
Sunday...

* timing... snow will continue to work across the region this
afternoon and into tonight. Snowfall may taper off for a while
overnight, but another burst of snow is expected on Sunday
morning.

* Accumulations... 4 to 6 inches of snow.

* Winds... south 5 to 10 mph.

* Impacts... the wintry precipitation will result in hazardous
travel conditions... especially on bridges... overpasses... and
untreated roads. Parking lots and sidewalks will become
slippery as well.

Precautionary/preparedness actions...

A Winter Weather Advisory means that up to 5 inches of snow is
expected across the advisory area. Roads may rapidly become
slippery once the snow begins... so motorists should plan for a
slower than normal trip. Be especially alert when approaching
bridges... overpasses... and curves.